Main page
METAR-TAF:

METAR-TAF

Airports :

Jaipur International Airport

Jaipur, India

latitude: 26-49N, longitude: 075-48E, elevation: 385 m

Current weather observation

The report was made 1 hour and 30 minutes ago, at 20:30 UTC
Wind 8 kt from the East
Temperature 31°C
Humidity 79%
Pressure 1000 hPa
Visibility: 3000 m
Scattered clouds at a height of 3000 ft
Broken clouds at a height of 10000 ft
haze

METAR: VIJP 052030Z 08008KT 3000 HZ SCT030 BKN100 31/27 Q1000 NOSIG

Time: 03:30 (22:00 UTC)

Forecast

The report was made 2 hours and 0 minutes ago, at 20:00 UTC
Forecast valid from 05 at 21 UTC to 06 at 06 UTC
Wind 5 kt from the East
Visibility: 3000 m
Scattered clouds at a height of 3000 ft
Scattered clouds at a height of 9000 ft
haze, mist
Becoming
from 06 at 04 UTC to 06 at 06 UTC
Wind 8 kt from the West/Southwest
Visibility: 5000 m
haze

TAF: VIJP 052000Z 0521/0606 09005KT 3000 HZ BR SCT030 SCT090 BECMG 0604/0606 25008KT 5000 HZ

Weather observations and forecasts of more than 4000 airports (METAR and TAF reports).

The available stations are represented by yellow and red dots on the map.

Hover mouse over dot to see the name of the station.

Then click to see weather observations and forecasts.

To change the map : click on the green buttons with a black cross to zoom in, on the green button with a dash to zoom out, or on the green arrows for adjacent maps.


METAR-TAF: